sensor_id;sensor_type;location;lat;lon;timestamp;P1;durP1;ratioP1;P2;durP2;ratioP2
48052;SDS011;33824;51.600;5.718;2022-07-29T00:01:20;4.53;;;0.75;;
48052;SDS011;33824;51.600;5.718;2022-07-29T00:03:46;2.75;;;1.02;;
48052;SDS011;33824;51.600;5.718;2022-07-29T00:06:12;4.03;;;0.82;;
48052;SDS011;33824;51.600;5.718;2022-07-29T00:08:38;2.97;;;0.68;;
48052;SDS011;33824;51.600;5.718;2022-07-29T00:11:03;4.47;;;0.63;;
48052;SDS011;33824;51.600;5.718;2022-07-29T00:13:29;2.17;;;0.90;;
48052;SDS011;33824;51.600;5.718;2022-07-29T00:15:54;3.88;;;1.05;;
48052;SDS011;33824;51.600;5.718;2022-07-29T00:18:20;10.10;;;0.90;;
48052;SDS011;33824;51.600;5.718;2022-07-29T00:20:45;3.25;;;0.80;;
48052;SDS011;33824;51.600;5.718;2022-07-29T00:23:11;2.25;;;0.82;;
48052;SDS011;33824;51.600;5.718;2022-07-29T00:25:36;4.40;;;0.85;;
48052;SDS011;33824;51.600;5.718;2022-07-29T00:28:02;3.42;;;0.95;;
48052;SDS011;33824;51.600;5.718;2022-07-29T00:30:27;11.95;;;1.10;;
48052;SDS011;33824;51.600;5.718;2022-07-29T00:32:53;4.28;;;0.80;;
48052;SDS011;33824;51.600;5.718;2022-07-29T00:35:20;1.33;;;0.60;;
48052;SDS011;33824;51.600;5.718;2022-07-29T00:38:04;12.13;;;1.00;;
48052;SDS011;33824;51.600;5.718;2022-07-29T00:40:31;5.22;;;0.93;;
48052;SDS011;33824;51.600;5.718;2022-07-29T00:42:56;2.75;;;0.93;;
48052;SDS011;33824;51.600;5.718;2022-07-29T00:45:22;3.13;;;1.00;;
48052;SDS011;33824;51.600;5.718;2022-07-29T00:47:48;5.05;;;1.05;;
48052;SDS011;33824;51.600;5.718;2022-07-29T00:50:14;5.38;;;1.00;;
48052;SDS011;33824;51.600;5.718;2022-07-29T00:52:40;6.03;;;1.65;;
48052;SDS011;33824;51.600;5.718;2022-07-29T00:55:07;2.05;;;1.10;;
48052;SDS011;33824;51.600;5.718;2022-07-29T00:57:35;7.28;;;1.38;;
48052;SDS011;33824;51.600;5.718;2022-07-29T01:00:05;2.78;;;1.30;;
48052;SDS011;33824;51.600;5.718;2022-07-29T01:02:33;10.15;;;1.42;;
48052;SDS011;33824;51.600;5.718;2022-07-29T01:04:58;6.93;;;1.23;;
48052;SDS011;33824;51.600;5.718;2022-07-29T01:07:25;3.55;;;1.33;;
48052;SDS011;33824;51.600;5.718;2022-07-29T01:09:51;4.72;;;1.55;;
48052;SDS011;33824;51.600;5.718;2022-07-29T01:12:21;4.53;;;1.40;;
48052;SDS011;33824;51.600;5.718;2022-07-29T01:14:49;6.78;;;1.50;;
48052;SDS011;33824;51.600;5.718;2022-07-29T01:22:53;5.40;;;1.40;;
48052;SDS011;33824;51.600;5.718;2022-07-29T01:31:04;4.50;;;1.27;;
48052;SDS011;33824;51.600;5.718;2022-07-29T01:33:33;3.65;;;1.35;;
48052;SDS011;33824;51.600;5.718;2022-07-29T01:36:20;6.05;;;1.40;;
48052;SDS011;33824;51.600;5.718;2022-07-29T01:39:08;4.43;;;1.42;;
48052;SDS011;33824;51.600;5.718;2022-07-29T01:41:35;7.03;;;1.30;;
48052;SDS011;33824;51.600;5.718;2022-07-29T01:44:13;2.05;;;1.42;;
48052;SDS011;33824;51.600;5.718;2022-07-29T01:46:44;5.50;;;1.40;;
48052;SDS011;33824;51.600;5.718;2022-07-29T01:49:19;4.25;;;1.40;;
48052;SDS011;33824;51.600;5.718;2022-07-29T01:51:49;11.25;;;1.60;;
48052;SDS011;33824;51.600;5.718;2022-07-29T01:56:47;5.85;;;2.13;;
48052;SDS011;33824;51.600;5.718;2022-07-29T01:59:15;4.90;;;1.40;;
48052;SDS011;33824;51.600;5.718;2022-07-29T02:01:42;3.75;;;1.70;;
48052;SDS011;33824;51.600;5.718;2022-07-29T02:04:10;2.58;;;1.65;;
48052;SDS011;33824;51.600;5.718;2022-07-29T02:06:38;6.82;;;1.85;;
48052;SDS011;33824;51.600;5.718;2022-07-29T02:09:06;5.18;;;1.77;;
48052;SDS011;33824;51.600;5.718;2022-07-29T02:11:33;6.97;;;2.20;;
48052;SDS011;33824;51.600;5.718;2022-07-29T02:14:02;11.88;;;2.00;;
48052;SDS011;33824;51.600;5.718;2022-07-29T02:16:30;7.78;;;1.90;;
48052;SDS011;33824;51.600;5.718;2022-07-29T02:18:57;8.60;;;2.28;;
48052;SDS011;33824;51.600;5.718;2022-07-29T02:21:25;2.55;;;1.70;;
48052;SDS011;33824;51.600;5.718;2022-07-29T02:23:53;3.15;;;1.50;;
48052;SDS011;33824;51.600;5.718;2022-07-29T02:26:21;6.30;;;1.92;;
48052;SDS011;33824;51.600;5.718;2022-07-29T02:28:54;2.67;;;1.52;;
48052;SDS011;33824;51.600;5.718;2022-07-29T02:31:23;6.15;;;1.45;;
48052;SDS011;33824;51.600;5.718;2022-07-29T02:33:51;6.53;;;2.00;;
48052;SDS011;33824;51.600;5.718;2022-07-29T02:36:18;5.13;;;1.83;;
48052;SDS011;33824;51.600;5.718;2022-07-29T02:38:47;4.75;;;1.90;;
48052;SDS011;33824;51.600;5.718;2022-07-29T02:41:20;4.97;;;1.80;;
48052;SDS011;33824;51.600;5.718;2022-07-29T02:43:53;2.80;;;1.60;;
48052;SDS011;33824;51.600;5.718;2022-07-29T02:46:25;2.35;;;1.50;;
48052;SDS011;33824;51.600;5.718;2022-07-29T02:48:59;7.78;;;2.40;;
48052;SDS011;33824;51.600;5.718;2022-07-29T02:51:42;3.13;;;1.40;;
48052;SDS011;33824;51.600;5.718;2022-07-29T02:54:10;4.18;;;1.63;;
48052;SDS011;33824;51.600;5.718;2022-07-29T02:56:44;4.07;;;1.88;;
48052;SDS011;33824;51.600;5.718;2022-07-29T02:59:11;3.58;;;1.65;;
48052;SDS011;33824;51.600;5.718;2022-07-29T03:01:40;5.57;;;1.92;;
48052;SDS011;33824;51.600;5.718;2022-07-29T03:04:08;10.65;;;2.42;;
48052;SDS011;33824;51.600;5.718;2022-07-29T03:06:36;4.75;;;1.90;;
48052;SDS011;33824;51.600;5.718;2022-07-29T03:09:03;3.25;;;1.80;;
48052;SDS011;33824;51.600;5.718;2022-07-29T03:11:31;6.45;;;1.98;;
48052;SDS011;33824;51.600;5.718;2022-07-29T03:13:59;4.43;;;1.65;;
48052;SDS011;33824;51.600;5.718;2022-07-29T03:16:25;5.97;;;1.90;;
48052;SDS011;33824;51.600;5.718;2022-07-29T03:18:51;5.15;;;2.20;;
48052;SDS011;33824;51.600;5.718;2022-07-29T03:21:17;3.10;;;1.55;;
48052;SDS011;33824;51.600;5.718;2022-07-29T03:23:45;5.97;;;1.88;;
48052;SDS011;33824;51.600;5.718;2022-07-29T03:26:11;17.10;;;2.17;;
48052;SDS011;33824;51.600;5.718;2022-07-29T03:28:37;3.45;;;1.70;;
48052;SDS011;33824;51.600;5.718;2022-07-29T03:31:03;2.72;;;1.73;;
48052;SDS011;33824;51.600;5.718;2022-07-29T03:33:29;5.70;;;1.75;;
48052;SDS011;33824;51.600;5.718;2022-07-29T03:35:55;6.30;;;1.60;;
48052;SDS011;33824;51.600;5.718;2022-07-29T03:38:23;2.50;;;1.50;;
48052;SDS011;33824;51.600;5.718;2022-07-29T03:40:55;4.17;;;1.60;;
48052;SDS011;33824;51.600;5.718;2022-07-29T03:43:26;8.55;;;2.45;;
48052;SDS011;33824;51.600;5.718;2022-07-29T03:45:57;2.83;;;1.70;;
48052;SDS011;33824;51.600;5.718;2022-07-29T03:48:25;5.05;;;1.73;;
48052;SDS011;33824;51.600;5.718;2022-07-29T03:50:51;3.60;;;1.77;;
48052;SDS011;33824;51.600;5.718;2022-07-29T03:53:17;3.78;;;1.50;;
48052;SDS011;33824;51.600;5.718;2022-07-29T03:55:44;3.15;;;1.40;;
48052;SDS011;33824;51.600;5.718;2022-07-29T03:58:11;3.10;;;1.63;;
48052;SDS011;33824;51.600;5.718;2022-07-29T04:00:40;4.20;;;1.58;;
48052;SDS011;33824;51.600;5.718;2022-07-29T04:03:06;2.05;;;1.58;;
48052;SDS011;33824;51.600;5.718;2022-07-29T04:05:33;3.75;;;1.23;;
48052;SDS011;33824;51.600;5.718;2022-07-29T04:07:59;4.03;;;1.60;;
48052;SDS011;33824;51.600;5.718;2022-07-29T04:10:24;6.45;;;2.00;;
48052;SDS011;33824;51.600;5.718;2022-07-29T04:12:50;4.10;;;1.67;;
48052;SDS011;33824;51.600;5.718;2022-07-29T04:15:15;3.72;;;2.13;;
48052;SDS011;33824;51.600;5.718;2022-07-29T04:17:41;6.35;;;1.90;;
48052;SDS011;33824;51.600;5.718;2022-07-29T04:20:07;4.10;;;1.90;;
48052;SDS011;33824;51.600;5.718;2022-07-29T04:22:33;4.47;;;1.95;;
48052;SDS011;33824;51.600;5.718;2022-07-29T04:24:58;6.10;;;2.63;;
48052;SDS011;33824;51.600;5.718;2022-07-29T04:27:24;3.25;;;1.83;;
48052;SDS011;33824;51.600;5.718;2022-07-29T04:29:50;6.05;;;1.90;;
48052;SDS011;33824;51.600;5.718;2022-07-29T04:32:16;5.00;;;2.10;;
48052;SDS011;33824;51.600;5.718;2022-07-29T04:34:41;4.80;;;2.05;;
48052;SDS011;33824;51.600;5.718;2022-07-29T04:37:07;3.30;;;1.90;;
48052;SDS011;33824;51.600;5.718;2022-07-29T04:39:32;6.40;;;2.08;;
48052;SDS011;33824;51.600;5.718;2022-07-29T04:41:58;6.63;;;2.08;;
48052;SDS011;33824;51.600;5.718;2022-07-29T04:44:23;3.25;;;1.88;;
48052;SDS011;33824;51.600;5.718;2022-07-29T04:46:49;4.45;;;1.90;;
48052;SDS011;33824;51.600;5.718;2022-07-29T04:49:14;5.72;;;2.30;;
48052;SDS011;33824;51.600;5.718;2022-07-29T04:51:40;4.63;;;2.33;;
48052;SDS011;33824;51.600;5.718;2022-07-29T04:54:06;4.50;;;1.90;;
48052;SDS011;33824;51.600;5.718;2022-07-29T04:56:31;5.55;;;2.05;;
48052;SDS011;33824;51.600;5.718;2022-07-29T04:58:57;7.05;;;2.28;;
48052;SDS011;33824;51.600;5.718;2022-07-29T05:01:22;4.25;;;2.20;;
48052;SDS011;33824;51.600;5.718;2022-07-29T05:03:48;7.60;;;2.72;;
48052;SDS011;33824;51.600;5.718;2022-07-29T05:06:14;7.80;;;2.63;;
48052;SDS011;33824;51.600;5.718;2022-07-29T05:08:39;5.40;;;2.25;;
48052;SDS011;33824;51.600;5.718;2022-07-29T05:11:05;7.30;;;2.67;;
48052;SDS011;33824;51.600;5.718;2022-07-29T05:13:30;4.78;;;2.22;;
48052;SDS011;33824;51.600;5.718;2022-07-29T05:15:55;9.00;;;2.70;;
48052;SDS011;33824;51.600;5.718;2022-07-29T05:18:23;6.25;;;2.47;;
48052;SDS011;33824;51.600;5.718;2022-07-29T05:20:49;6.20;;;2.67;;
48052;SDS011;33824;51.600;5.718;2022-07-29T05:23:15;7.20;;;2.70;;
48052;SDS011;33824;51.600;5.718;2022-07-29T05:25:40;8.30;;;3.20;;
48052;SDS011;33824;51.600;5.718;2022-07-29T05:28:06;6.57;;;2.72;;
48052;SDS011;33824;51.600;5.718;2022-07-29T05:30:31;5.15;;;3.10;;
48052;SDS011;33824;51.600;5.718;2022-07-29T05:32:57;11.48;;;2.78;;
48052;SDS011;33824;51.600;5.718;2022-07-29T05:35:22;6.88;;;2.92;;
48052;SDS011;33824;51.600;5.718;2022-07-29T05:37:49;7.07;;;2.63;;
48052;SDS011;33824;51.600;5.718;2022-07-29T05:40:15;7.03;;;2.83;;
48052;SDS011;33824;51.600;5.718;2022-07-29T05:42:41;5.30;;;2.35;;
48052;SDS011;33824;51.600;5.718;2022-07-29T05:45:06;3.65;;;2.60;;
48052;SDS011;33824;51.600;5.718;2022-07-29T05:47:32;6.50;;;2.53;;
48052;SDS011;33824;51.600;5.718;2022-07-29T05:49:58;4.28;;;2.55;;
48052;SDS011;33824;51.600;5.718;2022-07-29T05:52:23;4.78;;;2.95;;
48052;SDS011;33824;51.600;5.718;2022-07-29T05:54:49;4.95;;;3.03;;
48052;SDS011;33824;51.600;5.718;2022-07-29T05:57:15;6.05;;;2.72;;
48052;SDS011;33824;51.600;5.718;2022-07-29T05:59:46;10.20;;;3.03;;
48052;SDS011;33824;51.600;5.718;2022-07-29T06:02:12;5.65;;;2.20;;
48052;SDS011;33824;51.600;5.718;2022-07-29T06:04:37;3.15;;;2.50;;
48052;SDS011;33824;51.600;5.718;2022-07-29T06:07:03;4.15;;;2.50;;
48052;SDS011;33824;51.600;5.718;2022-07-29T06:09:29;9.07;;;3.22;;
48052;SDS011;33824;51.600;5.718;2022-07-29T06:11:55;7.18;;;3.35;;
48052;SDS011;33824;51.600;5.718;2022-07-29T06:14:20;8.02;;;3.00;;
48052;SDS011;33824;51.600;5.718;2022-07-29T06:16:46;8.90;;;2.75;;
48052;SDS011;33824;51.600;5.718;2022-07-29T06:19:11;9.63;;;3.25;;
48052;SDS011;33824;51.600;5.718;2022-07-29T06:21:41;7.38;;;3.15;;
48052;SDS011;33824;51.600;5.718;2022-07-29T06:24:10;10.80;;;2.60;;
48052;SDS011;33824;51.600;5.718;2022-07-29T06:26:37;10.85;;;2.80;;
48052;SDS011;33824;51.600;5.718;2022-07-29T06:29:03;6.25;;;2.97;;
48052;SDS011;33824;51.600;5.718;2022-07-29T06:31:28;8.02;;;3.17;;
48052;SDS011;33824;51.600;5.718;2022-07-29T06:33:54;7.72;;;3.17;;
48052;SDS011;33824;51.600;5.718;2022-07-29T06:36:19;5.50;;;3.25;;
48052;SDS011;33824;51.600;5.718;2022-07-29T06:38:45;7.75;;;3.70;;
48052;SDS011;33824;51.600;5.718;2022-07-29T06:41:11;11.77;;;3.72;;
48052;SDS011;33824;51.600;5.718;2022-07-29T06:43:38;6.75;;;3.25;;
48052;SDS011;33824;51.600;5.718;2022-07-29T06:46:13;11.80;;;3.85;;
48052;SDS011;33824;51.600;5.718;2022-07-29T06:48:40;7.07;;;3.25;;
48052;SDS011;33824;51.600;5.718;2022-07-29T06:51:10;10.75;;;3.92;;
48052;SDS011;33824;51.600;5.718;2022-07-29T06:53:36;6.97;;;3.28;;
48052;SDS011;33824;51.600;5.718;2022-07-29T06:56:03;6.35;;;2.65;;
48052;SDS011;33824;51.600;5.718;2022-07-29T06:58:30;6.28;;;2.83;;
48052;SDS011;33824;51.600;5.718;2022-07-29T07:00:56;5.38;;;3.10;;
48052;SDS011;33824;51.600;5.718;2022-07-29T07:03:24;7.82;;;3.08;;
48052;SDS011;33824;51.600;5.718;2022-07-29T07:05:50;3.97;;;2.90;;
48052;SDS011;33824;51.600;5.718;2022-07-29T07:08:17;13.23;;;3.10;;
48052;SDS011;33824;51.600;5.718;2022-07-29T07:10:42;6.22;;;2.97;;
48052;SDS011;33824;51.600;5.718;2022-07-29T07:13:08;3.95;;;2.47;;
48052;SDS011;33824;51.600;5.718;2022-07-29T07:15:35;9.02;;;3.42;;
48052;SDS011;33824;51.600;5.718;2022-07-29T07:18:01;4.30;;;2.63;;
48052;SDS011;33824;51.600;5.718;2022-07-29T07:20:27;7.53;;;2.88;;
48052;SDS011;33824;51.600;5.718;2022-07-29T07:22:52;3.65;;;2.67;;
48052;SDS011;33824;51.600;5.718;2022-07-29T07:25:18;5.68;;;2.30;;
48052;SDS011;33824;51.600;5.718;2022-07-29T07:27:44;5.75;;;2.35;;
48052;SDS011;33824;51.600;5.718;2022-07-29T07:30:10;8.80;;;3.28;;
48052;SDS011;33824;51.600;5.718;2022-07-29T07:32:36;5.15;;;2.30;;
48052;SDS011;33824;51.600;5.718;2022-07-29T07:35:02;5.13;;;2.58;;
48052;SDS011;33824;51.600;5.718;2022-07-29T07:37:29;12.10;;;3.28;;
48052;SDS011;33824;51.600;5.718;2022-07-29T07:39:54;4.57;;;2.80;;
48052;SDS011;33824;51.600;5.718;2022-07-29T07:42:20;7.20;;;2.53;;
48052;SDS011;33824;51.600;5.718;2022-07-29T07:44:46;6.72;;;2.60;;
48052;SDS011;33824;51.600;5.718;2022-07-29T07:47:13;5.53;;;2.58;;
48052;SDS011;33824;51.600;5.718;2022-07-29T07:49:46;6.75;;;2.63;;
48052;SDS011;33824;51.600;5.718;2022-07-29T07:52:12;7.75;;;3.78;;
48052;SDS011;33824;51.600;5.718;2022-07-29T07:54:39;8.30;;;2.60;;
48052;SDS011;33824;51.600;5.718;2022-07-29T07:57:05;7.30;;;3.00;;
48052;SDS011;33824;51.600;5.718;2022-07-29T07:59:30;5.97;;;2.40;;
48052;SDS011;33824;51.600;5.718;2022-07-29T08:01:56;7.78;;;3.10;;
48052;SDS011;33824;51.600;5.718;2022-07-29T08:04:21;5.85;;;2.85;;
48052;SDS011;33824;51.600;5.718;2022-07-29T08:06:47;14.63;;;3.00;;
48052;SDS011;33824;51.600;5.718;2022-07-29T08:09:15;8.90;;;2.65;;
48052;SDS011;33824;51.600;5.718;2022-07-29T08:11:40;7.30;;;2.72;;
48052;SDS011;33824;51.600;5.718;2022-07-29T08:14:06;5.75;;;3.15;;
48052;SDS011;33824;51.600;5.718;2022-07-29T08:16:31;4.95;;;2.45;;
48052;SDS011;33824;51.600;5.718;2022-07-29T08:18:57;8.88;;;2.80;;
48052;SDS011;33824;51.600;5.718;2022-07-29T08:21:22;4.32;;;2.60;;
48052;SDS011;33824;51.600;5.718;2022-07-29T08:23:49;7.30;;;3.15;;
48052;SDS011;33824;51.600;5.718;2022-07-29T08:26:18;8.45;;;4.07;;
48052;SDS011;33824;51.600;5.718;2022-07-29T08:28:45;7.45;;;2.80;;
48052;SDS011;33824;51.600;5.718;2022-07-29T08:31:14;6.45;;;2.95;;
48052;SDS011;33824;51.600;5.718;2022-07-29T08:33:40;7.75;;;2.58;;
48052;SDS011;33824;51.600;5.718;2022-07-29T08:36:06;7.90;;;3.20;;
48052;SDS011;33824;51.600;5.718;2022-07-29T08:38:33;4.45;;;2.83;;
48052;SDS011;33824;51.600;5.718;2022-07-29T08:41:02;3.80;;;2.42;;
48052;SDS011;33824;51.600;5.718;2022-07-29T08:43:28;4.25;;;2.55;;
48052;SDS011;33824;51.600;5.718;2022-07-29T08:45:54;5.20;;;2.75;;
48052;SDS011;33824;51.600;5.718;2022-07-29T08:48:21;5.32;;;2.45;;
48052;SDS011;33824;51.600;5.718;2022-07-29T08:50:48;6.72;;;3.13;;
48052;SDS011;33824;51.600;5.718;2022-07-29T08:53:19;8.30;;;3.17;;
48052;SDS011;33824;51.600;5.718;2022-07-29T08:55:47;4.47;;;2.83;;
48052;SDS011;33824;51.600;5.718;2022-07-29T08:58:15;7.35;;;3.28;;
48052;SDS011;33824;51.600;5.718;2022-07-29T09:00:44;5.13;;;3.15;;
48052;SDS011;33824;51.600;5.718;2022-07-29T09:03:14;5.97;;;3.25;;
48052;SDS011;33824;51.600;5.718;2022-07-29T09:05:42;6.05;;;3.25;;
48052;SDS011;33824;51.600;5.718;2022-07-29T09:08:09;5.75;;;3.20;;
48052;SDS011;33824;51.600;5.718;2022-07-29T09:10:35;6.05;;;3.33;;
48052;SDS011;33824;51.600;5.718;2022-07-29T09:13:00;5.32;;;3.10;;
48052;SDS011;33824;51.600;5.718;2022-07-29T09:15:26;9.43;;;3.92;;
48052;SDS011;33824;51.600;5.718;2022-07-29T09:17:51;9.32;;;3.15;;
48052;SDS011;33824;51.600;5.718;2022-07-29T09:20:20;6.13;;;3.60;;
48052;SDS011;33824;51.600;5.718;2022-07-29T09:22:47;9.05;;;3.33;;
48052;SDS011;33824;51.600;5.718;2022-07-29T09:25:35;6.70;;;3.33;;
48052;SDS011;33824;51.600;5.718;2022-07-29T09:28:11;7.93;;;3.50;;
48052;SDS011;33824;51.600;5.718;2022-07-29T09:30:50;7.30;;;3.55;;
48052;SDS011;33824;51.600;5.718;2022-07-29T09:33:23;4.75;;;3.30;;
48052;SDS011;33824;51.600;5.718;2022-07-29T09:36:08;6.15;;;3.65;;
48052;SDS011;33824;51.600;5.718;2022-07-29T09:38:35;7.05;;;3.70;;
48052;SDS011;33824;51.600;5.718;2022-07-29T09:41:03;8.73;;;3.80;;
48052;SDS011;33824;51.600;5.718;2022-07-29T09:43:30;9.65;;;4.20;;
48052;SDS011;33824;51.600;5.718;2022-07-29T09:45:55;7.80;;;3.35;;
48052;SDS011;33824;51.600;5.718;2022-07-29T09:48:34;4.93;;;3.33;;
48052;SDS011;33824;51.600;5.718;2022-07-29T09:50:59;8.07;;;3.50;;
48052;SDS011;33824;51.600;5.718;2022-07-29T09:53:36;9.13;;;3.97;;
48052;SDS011;33824;51.600;5.718;2022-07-29T09:56:03;6.25;;;3.08;;
48052;SDS011;33824;51.600;5.718;2022-07-29T09:58:30;9.20;;;2.97;;
48052;SDS011;33824;51.600;5.718;2022-07-29T10:00:55;4.30;;;3.00;;
48052;SDS011;33824;51.600;5.718;2022-07-29T10:03:21;6.85;;;3.40;;
48052;SDS011;33824;51.600;5.718;2022-07-29T10:06:10;13.52;;;3.47;;
48052;SDS011;33824;51.600;5.718;2022-07-29T10:08:38;3.97;;;2.45;;
48052;SDS011;33824;51.600;5.718;2022-07-29T10:11:10;6.50;;;3.25;;
48052;SDS011;33824;51.600;5.718;2022-07-29T10:13:38;7.97;;;3.45;;
48052;SDS011;33824;51.600;5.718;2022-07-29T10:16:05;7.72;;;3.25;;
48052;SDS011;33824;51.600;5.718;2022-07-29T10:18:31;10.68;;;3.72;;
48052;SDS011;33824;51.600;5.718;2022-07-29T10:20:57;7.53;;;3.17;;
48052;SDS011;33824;51.600;5.718;2022-07-29T10:23:23;10.02;;;3.92;;
48052;SDS011;33824;51.600;5.718;2022-07-29T10:25:49;5.75;;;2.95;;
48052;SDS011;33824;51.600;5.718;2022-07-29T10:28:15;9.57;;;3.50;;
48052;SDS011;33824;51.600;5.718;2022-07-29T10:30:41;7.72;;;3.35;;
48052;SDS011;33824;51.600;5.718;2022-07-29T10:35:56;9.35;;;3.47;;
48052;SDS011;33824;51.600;5.718;2022-07-29T10:41:53;8.20;;;3.70;;
48052;SDS011;33824;51.600;5.718;2022-07-29T10:44:24;10.35;;;3.65;;
48052;SDS011;33824;51.600;5.718;2022-07-29T10:46:51;9.60;;;3.50;;
48052;SDS011;33824;51.600;5.718;2022-07-29T10:49:17;7.03;;;3.33;;
48052;SDS011;33824;51.600;5.718;2022-07-29T10:54:18;10.23;;;3.33;;
48052;SDS011;33824;51.600;5.718;2022-07-29T11:05:09;5.68;;;3.40;;
48052;SDS011;33824;51.600;5.718;2022-07-29T11:07:37;5.30;;;3.70;;
48052;SDS011;33824;51.600;5.718;2022-07-29T11:15:02;16.23;;;4.03;;
48052;SDS011;33824;51.600;5.718;2022-07-29T11:17:52;8.13;;;3.50;;
48052;SDS011;33824;51.600;5.718;2022-07-29T11:20:41;7.03;;;3.63;;
48052;SDS011;33824;51.600;5.718;2022-07-29T11:23:18;7.10;;;3.13;;
48052;SDS011;33824;51.600;5.718;2022-07-29T11:31:32;7.10;;;3.70;;
48052;SDS011;33824;51.600;5.718;2022-07-29T11:39:30;10.10;;;3.70;;
48052;SDS011;33824;51.600;5.718;2022-07-29T11:45:03;5.75;;;2.60;;
48052;SDS011;33824;51.600;5.718;2022-07-29T11:47:31;6.22;;;2.50;;
48052;SDS011;33824;51.600;5.718;2022-07-29T11:49:58;5.15;;;2.20;;
48052;SDS011;33824;51.600;5.718;2022-07-29T11:55:05;4.63;;;2.20;;
48052;SDS011;33824;51.600;5.718;2022-07-29T11:57:31;7.15;;;2.72;;
48052;SDS011;33824;51.600;5.718;2022-07-29T11:59:59;6.03;;;2.33;;
48052;SDS011;33824;51.600;5.718;2022-07-29T12:02:25;4.90;;;2.55;;
48052;SDS011;33824;51.600;5.718;2022-07-29T12:05:03;5.00;;;2.67;;
48052;SDS011;33824;51.600;5.718;2022-07-29T12:07:33;6.30;;;2.60;;
48052;SDS011;33824;51.600;5.718;2022-07-29T12:09:59;4.40;;;2.47;;
48052;SDS011;33824;51.600;5.718;2022-07-29T12:12:25;5.05;;;2.53;;
48052;SDS011;33824;51.600;5.718;2022-07-29T12:14:51;6.68;;;2.83;;
48052;SDS011;33824;51.600;5.718;2022-07-29T12:17:27;7.75;;;2.25;;
48052;SDS011;33824;51.600;5.718;2022-07-29T12:19:59;7.05;;;2.17;;
48052;SDS011;33824;51.600;5.718;2022-07-29T12:22:36;4.97;;;2.78;;
48052;SDS011;33824;51.600;5.718;2022-07-29T12:25:09;4.63;;;2.30;;
48052;SDS011;33824;51.600;5.718;2022-07-29T12:27:40;5.47;;;2.53;;
48052;SDS011;33824;51.600;5.718;2022-07-29T12:30:12;4.05;;;1.67;;
48052;SDS011;33824;51.600;5.718;2022-07-29T12:35:13;7.28;;;1.63;;
48052;SDS011;33824;51.600;5.718;2022-07-29T12:37:41;6.85;;;2.55;;
48052;SDS011;33824;51.600;5.718;2022-07-29T12:40:09;6.90;;;1.40;;
48052;SDS011;33824;51.600;5.718;2022-07-29T12:42:36;5.63;;;1.65;;
48052;SDS011;33824;51.600;5.718;2022-07-29T12:45:03;7.20;;;2.28;;
48052;SDS011;33824;51.600;5.718;2022-07-29T12:47:30;4.80;;;2.15;;
48052;SDS011;33824;51.600;5.718;2022-07-29T12:50:08;5.28;;;1.98;;
48052;SDS011;33824;51.600;5.718;2022-07-29T12:52:35;4.82;;;1.92;;
48052;SDS011;33824;51.600;5.718;2022-07-29T12:55:02;6.15;;;1.83;;
48052;SDS011;33824;51.600;5.718;2022-07-29T12:57:29;3.55;;;2.00;;
48052;SDS011;33824;51.600;5.718;2022-07-29T13:02:31;9.80;;;1.90;;
48052;SDS011;33824;51.600;5.718;2022-07-29T13:05:00;6.97;;;2.03;;
48052;SDS011;33824;51.600;5.718;2022-07-29T13:07:27;3.40;;;1.80;;
48052;SDS011;33824;51.600;5.718;2022-07-29T13:09:58;4.88;;;2.15;;
48052;SDS011;33824;51.600;5.718;2022-07-29T13:12:37;7.80;;;1.95;;
48052;SDS011;33824;51.600;5.718;2022-07-29T13:15:11;4.43;;;2.03;;
48052;SDS011;33824;51.600;5.718;2022-07-29T13:17:42;3.78;;;2.08;;
48052;SDS011;33824;51.600;5.718;2022-07-29T13:20:11;5.03;;;1.92;;
48052;SDS011;33824;51.600;5.718;2022-07-29T13:22:41;2.78;;;1.92;;
48052;SDS011;33824;51.600;5.718;2022-07-29T13:25:10;6.80;;;2.00;;
48052;SDS011;33824;51.600;5.718;2022-07-29T13:27:37;4.97;;;2.25;;
48052;SDS011;33824;51.600;5.718;2022-07-29T13:30:06;4.15;;;2.10;;
48052;SDS011;33824;51.600;5.718;2022-07-29T13:32:33;5.57;;;2.50;;
48052;SDS011;33824;51.600;5.718;2022-07-29T13:35:00;6.15;;;2.53;;
48052;SDS011;33824;51.600;5.718;2022-07-29T13:37:27;5.88;;;2.28;;
48052;SDS011;33824;51.600;5.718;2022-07-29T13:39:57;10.02;;;2.97;;
48052;SDS011;33824;51.600;5.718;2022-07-29T13:42:23;5.85;;;2.55;;
48052;SDS011;33824;51.600;5.718;2022-07-29T13:44:48;7.78;;;2.13;;
48052;SDS011;33824;51.600;5.718;2022-07-29T13:47:16;6.35;;;1.95;;
48052;SDS011;33824;51.600;5.718;2022-07-29T13:49:41;8.13;;;1.90;;
48052;SDS011;33824;51.600;5.718;2022-07-29T13:52:07;3.60;;;1.80;;
48052;SDS011;33824;51.600;5.718;2022-07-29T13:54:32;9.57;;;1.90;;
48052;SDS011;33824;51.600;5.718;2022-07-29T13:57:01;3.70;;;1.70;;
48052;SDS011;33824;51.600;5.718;2022-07-29T13:59:26;3.90;;;1.80;;
48052;SDS011;33824;51.600;5.718;2022-07-29T14:01:52;2.83;;;1.38;;
48052;SDS011;33824;51.600;5.718;2022-07-29T14:04:17;8.27;;;1.90;;
48052;SDS011;33824;51.600;5.718;2022-07-29T14:06:43;4.90;;;1.70;;
48052;SDS011;33824;51.600;5.718;2022-07-29T14:09:08;5.15;;;1.55;;
48052;SDS011;33824;51.600;5.718;2022-07-29T14:11:34;5.53;;;1.98;;
48052;SDS011;33824;51.600;5.718;2022-07-29T14:14:00;5.63;;;1.98;;
48052;SDS011;33824;51.600;5.718;2022-07-29T14:16:26;3.30;;;1.60;;
48052;SDS011;33824;51.600;5.718;2022-07-29T14:18:52;4.10;;;1.70;;
48052;SDS011;33824;51.600;5.718;2022-07-29T14:21:17;4.68;;;1.77;;
48052;SDS011;33824;51.600;5.718;2022-07-29T14:23:43;5.50;;;2.10;;
48052;SDS011;33824;51.600;5.718;2022-07-29T14:26:09;8.38;;;1.90;;
48052;SDS011;33824;51.600;5.718;2022-07-29T14:28:34;4.85;;;1.42;;
48052;SDS011;33824;51.600;5.718;2022-07-29T14:31:00;9.85;;;1.77;;
48052;SDS011;33824;51.600;5.718;2022-07-29T14:33:25;5.97;;;1.30;;
48052;SDS011;33824;51.600;5.718;2022-07-29T14:35:51;3.78;;;1.20;;
48052;SDS011;33824;51.600;5.718;2022-07-29T14:38:16;4.70;;;1.63;;
48052;SDS011;33824;51.600;5.718;2022-07-29T14:40:42;6.38;;;1.20;;
48052;SDS011;33824;51.600;5.718;2022-07-29T14:43:07;4.10;;;1.38;;
48052;SDS011;33824;51.600;5.718;2022-07-29T14:45:33;5.47;;;1.85;;
48052;SDS011;33824;51.600;5.718;2022-07-29T14:47:58;2.22;;;1.27;;
48052;SDS011;33824;51.600;5.718;2022-07-29T14:50:25;3.42;;;1.40;;
48052;SDS011;33824;51.600;5.718;2022-07-29T14:52:51;5.18;;;1.33;;
48052;SDS011;33824;51.600;5.718;2022-07-29T14:55:17;10.63;;;1.65;;
48052;SDS011;33824;51.600;5.718;2022-07-29T14:57:43;8.63;;;1.40;;
48052;SDS011;33824;51.600;5.718;2022-07-29T15:00:08;3.35;;;1.13;;
48052;SDS011;33824;51.600;5.718;2022-07-29T15:02:35;7.45;;;1.92;;
48052;SDS011;33824;51.600;5.718;2022-07-29T15:05:01;4.53;;;1.20;;
48052;SDS011;33824;51.600;5.718;2022-07-29T15:07:27;4.85;;;1.40;;
48052;SDS011;33824;51.600;5.718;2022-07-29T15:09:52;4.40;;;1.40;;
48052;SDS011;33824;51.600;5.718;2022-07-29T15:12:18;3.40;;;1.45;;
48052;SDS011;33824;51.600;5.718;2022-07-29T15:14:43;4.57;;;1.50;;
48052;SDS011;33824;51.600;5.718;2022-07-29T15:17:09;4.75;;;1.58;;
48052;SDS011;33824;51.600;5.718;2022-07-29T15:19:35;5.93;;;1.65;;
48052;SDS011;33824;51.600;5.718;2022-07-29T15:22:00;3.25;;;1.90;;
48052;SDS011;33824;51.600;5.718;2022-07-29T15:24:26;4.15;;;1.48;;
48052;SDS011;33824;51.600;5.718;2022-07-29T15:26:51;6.50;;;1.52;;
48052;SDS011;33824;51.600;5.718;2022-07-29T15:29:17;2.10;;;1.30;;
48052;SDS011;33824;51.600;5.718;2022-07-29T15:31:42;11.30;;;1.75;;
48052;SDS011;33824;51.600;5.718;2022-07-29T15:34:08;5.68;;;1.98;;
48052;SDS011;33824;51.600;5.718;2022-07-29T15:36:34;4.00;;;1.40;;
48052;SDS011;33824;51.600;5.718;2022-07-29T15:38:59;5.80;;;1.17;;
48052;SDS011;33824;51.600;5.718;2022-07-29T15:41:25;7.45;;;1.67;;
48052;SDS011;33824;51.600;5.718;2022-07-29T15:43:50;4.53;;;1.33;;
48052;SDS011;33824;51.600;5.718;2022-07-29T15:46:17;7.75;;;1.80;;